Time;durP1;ratioP1;P1;durP2;ratioP2;P2;SDS_P1;SDS_P2;PMS_P1;PMS_P2;Temp;Humidity;BMP_temperature;BMP_pressure;BME280_temperature;BME280_humidity;BME280_pressure;Samples;Min_cycle;Max_cycle;Signal;HPM_P1;HPM_P2
2021/05/09 00:00:22;;;;;;;4.53;1.77;;;15.40;61.90;;;;;;5085435;28;20032;-59
2021/05/09 00:02:49;;;;;;;3.28;1.67;;;15.40;61.90;;;;;;5085866;28;20046;-59
2021/05/09 00:05:15;;;;;;;2.28;1.67;;;15.40;61.90;;;;;;5085258;28;20482;-59
2021/05/09 00:07:41;;;;;;;1.77;1.50;;;15.40;61.90;;;;;;5088505;28;20035;-60
2021/05/09 00:10:10;;;;;;;1.83;1.40;;;15.40;61.90;;;;;;5089411;28;20035;-59
2021/05/09 00:12:38;;;;;;;3.55;1.55;;;15.40;62.00;;;;;;5089996;28;20058;-59
2021/05/09 00:15:06;;;;;;;3.10;1.48;;;15.40;62.50;;;;;;5090008;28;20035;-59
2021/05/09 00:17:32;;;;;;;2.72;1.70;;;15.40;62.00;;;;;;5089368;28;20036;-60
2021/05/09 00:19:58;;;;;;;3.40;2.10;;;15.30;61.80;;;;;;5089549;28;20394;-59
2021/05/09 00:22:24;;;;;;;1.60;1.45;;;15.30;61.80;;;;;;5089269;28;20468;-58
2021/05/09 00:24:50;;;;;;;2.38;1.83;;;15.30;61.90;;;;;;5088931;28;20149;-59
2021/05/09 00:27:16;;;;;;;3.03;2.03;;;15.30;61.90;;;;;;5089601;28;20103;-59
2021/05/09 00:29:42;;;;;;;2.17;1.48;;;15.30;61.90;;;;;;5087809;28;20032;-59
2021/05/09 00:32:08;;;;;;;1.65;1.50;;;15.30;61.90;;;;;;5089226;28;20077;-59
2021/05/09 00:34:34;;;;;;;3.08;1.60;;;15.30;62.00;;;;;;5088107;28;20032;-59
2021/05/09 00:37:01;;;;;;;2.08;1.85;;;15.20;61.80;;;;;;5088904;28;20382;-59
2021/05/09 00:39:27;;;;;;;3.80;1.60;;;15.30;62.00;;;;;;5089607;28;20093;-59
2021/05/09 00:42:06;;;;;;;2.00;1.70;;;15.30;62.00;;;;;;5089259;28;20462;-59
2021/05/09 00:44:33;;;;;;;1.73;1.50;;;15.30;62.10;;;;;;5088516;28;20117;-59
2021/05/09 00:47:07;;;;;;;1.92;1.42;;;15.20;61.90;;;;;;5089349;28;20398;-59
2021/05/09 00:49:35;;;;;;;2.03;1.80;;;15.20;62.00;;;;;;5088541;28;20059;-59
2021/05/09 00:52:02;;;;;;;2.63;1.50;;;15.20;61.90;;;;;;5087612;28;20081;-59
2021/05/09 00:54:29;;;;;;;2.28;1.60;;;15.20;61.90;;;;;;5086916;28;20036;-59
2021/05/09 00:56:56;;;;;;;1.40;1.30;;;15.20;61.90;;;;;;5087425;28;20039;-58
2021/05/09 00:59:27;;;;;;;2.22;1.42;;;15.20;61.90;;;;;;5089098;28;20036;-59
2021/05/09 01:01:55;;;;;;;2.50;1.55;;;15.20;62.00;;;;;;5088926;28;20395;-59
2021/05/09 01:04:21;;;;;;;2.13;1.50;;;15.20;62.00;;;;;;5088233;28;20040;-59
2021/05/09 01:06:48;;;;;;;2.53;1.70;;;15.20;62.00;;;;;;5088902;28;20462;-59
2021/05/09 01:09:15;;;;;;;2.45;1.58;;;15.20;62.00;;;;;;5088602;28;20247;-59
2021/05/09 01:11:44;;;;;;;2.25;1.35;;;15.20;62.00;;;;;;5088117;28;20039;-59
2021/05/09 01:14:10;;;;;;;2.22;1.65;;;15.10;61.90;;;;;;5087219;28;20052;-59
2021/05/09 01:16:37;;;;;;;2.45;1.63;;;15.10;61.90;;;;;;5086312;28;20028;-59
2021/05/09 01:19:04;;;;;;;2.60;1.63;;;15.10;61.90;;;;;;5088201;28;20036;-59
2021/05/09 01:21:30;;;;;;;2.47;1.23;;;15.10;61.90;;;;;;5087253;28;20032;-59
2021/05/09 01:23:57;;;;;;;2.33;1.75;;;15.10;61.90;;;;;;5086670;28;20056;-59
2021/05/09 01:26:23;;;;;;;1.77;1.30;;;15.10;61.90;;;;;;5088482;28;20436;-59
2021/05/09 01:28:51;;;;;;;1.52;1.35;;;15.10;61.90;;;;;;5086491;28;20024;-60
2021/05/09 01:31:18;;;;;;;2.88;1.65;;;15.10;61.90;;;;;;5086233;22;20520;-78
2021/05/09 01:33:44;;;;;;;1.75;1.52;;;15.10;62.00;;;;;;5048232;28;20029;-77
2021/05/09 01:36:10;;;;;;;2.35;1.60;;;15.00;61.80;;;;;;5045836;28;20040;-80
2021/05/09 01:38:36;;;;;;;1.85;1.58;;;15.00;61.80;;;;;;5034282;28;20120;-79
2021/05/09 01:41:02;;;;;;;2.05;1.50;;;15.00;61.80;;;;;;5030627;28;20033;-82
2021/05/09 01:43:36;;;;;;;2.25;1.55;;;15.00;61.90;;;;;;5043582;28;20087;-80
2021/05/09 01:46:04;;;;;;;1.65;1.55;;;15.00;62.00;;;;;;5044892;22;20428;-79
2021/05/09 01:48:30;;;;;;;1.50;1.40;;;15.00;61.90;;;;;;5050007;28;20396;-80
2021/05/09 01:50:56;;;;;;;2.33;1.75;;;15.00;61.90;;;;;;5050574;28;20032;-80
2021/05/09 01:53:23;;;;;;;2.55;1.55;;;15.00;62.00;;;;;;5033742;28;20033;-81
2021/05/09 01:55:50;;;;;;;3.15;1.55;;;15.00;62.00;;;;;;5050032;28;20078;-80
2021/05/09 01:58:24;;;;;;;1.83;1.50;;;15.00;62.00;;;;;;5049828;28;20032;-80
2021/05/09 02:01:11;;;;;;;2.47;1.95;;;15.00;62.00;;;;;;5036625;28;20053;-80
2021/05/09 02:03:53;;;;;;;1.65;1.55;;;15.00;62.00;;;;;;5051402;28;20045;-80
2021/05/09 02:06:20;;;;;;;2.67;1.77;;;15.00;62.00;;;;;;5052088;28;20055;-80
2021/05/09 02:08:46;;;;;;;2.33;1.63;;;15.00;62.00;;;;;;5051294;28;20032;-80
2021/05/09 02:11:31;;;;;;;1.92;1.67;;;15.00;62.10;;;;;;5037742;28;20029;-80
2021/05/09 02:14:01;;;;;;;2.67;1.50;;;14.90;61.90;;;;;;5053172;28;20392;-81
2021/05/09 02:16:31;;;;;;;2.72;1.55;;;15.00;62.10;;;;;;5051711;28;20056;-80
2021/05/09 02:18:58;;;;;;;3.15;1.60;;;14.90;61.90;;;;;;5051832;28;20079;-80
2021/05/09 02:21:34;;;;;;;4.90;1.83;;;14.90;61.90;;;;;;5050710;28;20029;-80
2021/05/09 02:24:01;;;;;;;3.95;1.75;;;15.00;62.10;;;;;;5034984;28;20029;-81
2021/05/09 02:26:27;;;;;;;1.42;1.27;;;14.90;61.90;;;;;;5051626;28;20294;-79
2021/05/09 02:28:54;;;;;;;2.25;1.60;;;14.90;61.90;;;;;;5050621;28;20543;-80
2021/05/09 02:31:20;;;;;;;3.25;1.75;;;14.90;61.90;;;;;;5051591;28;20029;-81
2021/05/09 02:33:46;;;;;;;4.07;1.63;;;14.90;62.00;;;;;;5067703;28;20032;-80
2021/05/09 02:36:12;;;;;;;1.67;1.58;;;14.90;62.00;;;;;;5051299;28;20029;-80
2021/05/09 02:38:39;;;;;;;2.00;1.40;;;14.90;62.50;;;;;;5034547;28;20192;-79
2021/05/09 02:41:05;;;;;;;2.70;1.80;;;14.90;62.00;;;;;;5051879;28;20029;-78
2021/05/09 02:43:31;;;;;;;2.50;1.63;;;14.80;61.90;;;;;;5051128;28;20044;-79
2021/05/09 02:45:57;;;;;;;2.53;1.70;;;14.90;62.10;;;;;;5050806;28;20052;-79
2021/05/09 02:48:23;;;;;;;4.28;1.58;;;14.90;62.60;;;;;;5052150;28;20028;-79
2021/05/09 02:50:49;;;;;;;2.17;1.50;;;14.80;61.90;;;;;;5051846;28;20044;-79
2021/05/09 02:53:15;;;;;;;1.52;1.42;;;14.80;61.90;;;;;;5052180;28;20036;-80
2021/05/09 02:55:42;;;;;;;1.95;1.48;;;14.80;62.00;;;;;;5050796;28;20099;-80
2021/05/09 02:58:08;;;;;;;2.58;1.85;;;14.80;62.00;;;;;;5051496;28;20033;-80
2021/05/09 03:00:35;;;;;;;1.70;1.60;;;14.80;62.00;;;;;;5050290;28;20116;-80
2021/05/09 03:03:03;;;;;;;5.88;2.10;;;14.80;62.00;;;;;;5050661;28;20036;-80
2021/05/09 03:05:30;;;;;;;4.65;1.70;;;14.80;62.00;;;;;;5034778;28;20403;-80
2021/05/09 03:07:56;;;;;;;2.85;1.92;;;14.80;62.10;;;;;;5050689;28;20079;-81
2021/05/09 03:10:22;;;;;;;3.22;1.50;;;14.80;62.10;;;;;;5034022;28;20048;-81
2021/05/09 03:12:48;;;;;;;4.18;1.63;;;14.80;62.10;;;;;;5034101;28;20061;-81
2021/05/09 03:15:15;;;;;;;3.15;1.70;;;14.80;62.10;;;;;;5033910;28;20033;-80
2021/05/09 03:17:41;;;;;;;4.22;1.67;;;14.80;62.10;;;;;;5032759;28;20491;-80
2021/05/09 03:20:08;;;;;;;1.55;1.42;;;14.80;62.10;;;;;;5033899;28;20057;-80
2021/05/09 03:22:34;;;;;;;1.60;1.50;;;14.80;62.20;;;;;;5016917;28;20021;-80
2021/05/09 03:25:00;;;;;;;2.58;1.88;;;14.80;62.10;;;;;;5033522;28;20036;-80
2021/05/09 03:27:26;;;;;;;2.05;1.48;;;14.80;62.10;;;;;;5050128;28;20033;-80
2021/05/09 03:29:52;;;;;;;2.40;1.67;;;14.80;62.60;;;;;;5050835;28;20043;-80
2021/05/09 03:32:18;;;;;;;2.92;1.90;;;14.80;62.10;;;;;;5034396;28;20656;-81
2021/05/09 03:34:44;;;;;;;2.78;2.00;;;14.80;62.10;;;;;;5049649;28;20048;-80
2021/05/09 03:37:10;;;;;;;4.18;1.50;;;14.80;62.20;;;;;;5033314;28;20029;-81
2021/05/09 03:39:35;;;;;;;2.28;1.67;;;14.80;62.20;;;;;;5051120;28;20112;-80
2021/05/09 03:42:01;;;;;;;2.08;1.52;;;14.80;62.20;;;;;;5049952;28;20083;-80
2021/05/09 03:44:27;;;;;;;1.98;1.42;;;14.70;62.00;;;;;;5049615;28;20475;-80
2021/05/09 03:46:53;;;;;;;2.25;1.60;;;14.70;62.00;;;;;;5050951;28;20061;-80
2021/05/09 03:49:19;;;;;;;3.55;1.70;;;14.70;62.10;;;;;;5033324;28;20103;-80
2021/05/09 03:51:45;;;;;;;2.15;1.48;;;14.70;62.10;;;;;;5051227;28;20128;-81
2021/05/09 03:54:11;;;;;;;2.63;1.50;;;14.70;62.10;;;;;;5051058;28;20141;-80
2021/05/09 03:56:37;;;;;;;1.60;1.50;;;14.70;62.10;;;;;;5050203;28;20029;-81
2021/05/09 03:59:03;;;;;;;1.77;1.48;;;14.70;62.10;;;;;;5032939;28;20040;-80
2021/05/09 04:01:29;;;;;;;1.63;1.35;;;14.60;62.00;;;;;;5017022;28;20094;-80
2021/05/09 04:03:55;;;;;;;2.05;1.48;;;14.60;62.00;;;;;;5033681;28;20029;-81
2021/05/09 04:06:21;;;;;;;2.55;1.60;;;14.60;62.00;;;;;;5033406;28;20102;-81
2021/05/09 04:08:49;;;;;;;1.50;1.40;;;14.60;62.00;;;;;;5033473;28;20267;-81
2021/05/09 04:11:17;;;;;;;1.85;1.40;;;14.60;62.10;;;;;;5049715;28;20534;-80
2021/05/09 04:13:47;;;;;;;1.52;1.33;;;14.60;62.10;;;;;;5033132;28;20028;-81
2021/05/09 04:16:13;;;;;;;1.60;1.30;;;14.50;62.00;;;;;;5033587;28;20032;-80
2021/05/09 04:18:40;;;;;;;2.75;1.58;;;14.50;62.00;;;;;;5032917;28;20056;-80
2021/05/09 04:21:06;;;;;;;1.48;1.35;;;14.50;62.00;;;;;;5049816;28;20067;-80
2021/05/09 04:23:32;;;;;;;1.27;1.08;;;14.50;62.00;;;;;;5032899;28;20484;-80
2021/05/09 04:25:59;;;;;;;2.17;1.63;;;14.40;61.90;;;;;;5049454;28;20060;-81
2021/05/09 04:28:24;;;;;;;1.73;1.30;;;14.40;61.90;;;;;;5049256;28;20025;-81
2021/05/09 04:30:52;;;;;;;2.47;1.58;;;14.40;62.00;;;;;;5051035;28;20037;-80
2021/05/09 04:33:24;;;;;;;3.17;1.48;;;14.40;62.00;;;;;;5032760;28;20025;-81
2021/05/09 04:35:50;;;;;;;2.50;1.33;;;14.40;62.00;;;;;;5049684;28;20057;-81
2021/05/09 04:38:16;;;;;;;3.00;1.60;;;14.30;61.90;;;;;;5049608;28;20063;-81
2021/05/09 04:40:42;;;;;;;2.17;1.38;;;14.40;62.10;;;;;;5050883;28;20037;-81
2021/05/09 04:43:13;;;;;;;2.08;1.27;;;14.40;62.10;;;;;;5032994;28;20064;-80
2021/05/09 04:45:39;;;;;;;2.50;1.20;;;14.30;62.00;;;;;;5028364;28;20095;-81
2021/05/09 04:48:06;;;;;;;1.67;1.23;;;14.40;62.20;;;;;;5022035;28;20042;-81
2021/05/09 04:50:32;;;;;;;1.98;1.45;;;14.30;62.00;;;;;;5010410;28;20086;-81
2021/05/09 04:52:58;;;;;;;3.65;1.77;;;14.30;62.00;;;;;;5012594;28;20191;-81
2021/05/09 04:55:25;;;;;;;1.85;1.40;;;14.30;62.10;;;;;;5013386;28;20033;-81
2021/05/09 04:57:51;;;;;;;1.30;1.20;;;14.30;62.10;;;;;;5018681;28;20563;-81
2021/05/09 05:00:17;;;;;;;1.55;1.42;;;14.30;62.10;;;;;;5033483;28;20044;-81
2021/05/09 05:02:44;;;;;;;1.40;1.30;;;14.30;62.10;;;;;;5048229;28;20033;-81
2021/05/09 05:05:11;;;;;;;1.27;1.17;;;14.30;62.10;;;;;;5031792;28;20086;-81
2021/05/09 05:07:38;;;;;;;1.38;1.27;;;14.30;62.10;;;;;;5045209;28;20267;-82
2021/05/09 05:10:05;;;;;;;1.80;1.38;;;14.40;62.30;;;;;;5012071;28;20413;-80
2021/05/09 05:12:31;;;;;;;1.42;1.25;;;14.40;62.30;;;;;;5016856;28;20079;-81
2021/05/09 05:14:58;;;;;;;1.17;1.02;;;14.40;62.20;;;;;;5032148;28;20035;-80
2021/05/09 05:17:23;;;;;;;1.83;1.33;;;14.50;62.40;;;;;;5031421;28;20115;-81
2021/05/09 05:19:50;;;;;;;1.65;1.50;;;14.50;62.30;;;;;;5031244;28;20075;-81
2021/05/09 05:22:16;;;;;;;1.52;1.35;;;14.50;62.30;;;;;;5029399;28;20025;-80
2021/05/09 05:24:42;;;;;;;1.25;1.15;;;14.60;62.40;;;;;;5011388;28;20041;-80
2021/05/09 05:27:08;;;;;;;2.08;1.10;;;14.60;62.40;;;;;;5027915;28;20563;-80
2021/05/09 05:29:34;;;;;;;1.30;1.20;;;14.60;62.40;;;;;;5030092;28;20117;-81
2021/05/09 05:32:00;;;;;;;1.60;1.30;;;14.60;62.40;;;;;;5031637;28;20958;-81
2021/05/09 05:34:26;;;;;;;1.38;1.10;;;14.60;62.40;;;;;;5031686;28;20106;-80
2021/05/09 05:36:52;;;;;;;1.15;1.08;;;14.70;62.60;;;;;;5031355;28;20423;-80
2021/05/09 05:39:19;;;;;;;2.40;1.40;;;14.70;62.50;;;;;;5028187;28;20059;-80
2021/05/09 05:41:45;;;;;;;3.85;1.55;;;14.70;62.40;;;;;;5011310;28;20030;-80
2021/05/09 05:44:11;;;;;;;1.45;1.33;;;14.80;62.60;;;;;;5048056;28;20029;-80
2021/05/09 05:46:37;;;;;;;2.90;1.15;;;14.80;62.50;;;;;;5031620;28;20052;-81
2021/05/09 05:49:03;;;;;;;2.03;1.17;;;14.90;62.60;;;;;;5031178;28;20057;-80
2021/05/09 05:51:30;;;;;;;0.90;0.90;;;14.90;62.50;;;;;;5031624;28;20098;-80
2021/05/09 05:53:59;;;;;;;1.00;1.00;;;14.90;62.50;;;;;;5031370;28;20116;-84
2021/05/09 05:56:25;;;;;;;1.20;1.10;;;14.90;62.50;;;;;;5030896;28;20546;-81
2021/05/09 05:58:52;;;;;;;1.80;1.30;;;14.90;62.40;;;;;;5027677;28;20049;-80
2021/05/09 06:01:18;;;;;;;1.10;1.00;;;15.00;62.60;;;;;;5011738;28;20143;-81
2021/05/09 06:03:47;;;;;;;1.08;1.00;;;15.00;62.50;;;;;;5047692;28;20374;-82
2021/05/09 06:06:13;;;;;;;4.18;1.42;;;15.00;62.50;;;;;;5030776;28;20064;-81
2021/05/09 06:08:40;;;;;;;1.45;1.35;;;15.10;62.60;;;;;;5047575;28;20037;-80
2021/05/09 06:11:06;;;;;;;1.52;1.20;;;15.10;62.50;;;;;;5030392;28;20467;-83
2021/05/09 06:13:34;;;;;;;1.30;1.20;;;15.10;62.50;;;;;;5018434;28;20021;-81
2021/05/09 06:16:00;;;;;;;1.20;1.10;;;15.10;62.40;;;;;;5010459;28;20021;-81
2021/05/09 06:18:27;;;;;;;0.90;0.90;;;15.10;62.40;;;;;;5013271;28;20086;-82
2021/05/09 06:20:54;;;;;;;1.30;1.20;;;15.10;62.40;;;;;;5029946;28;20035;-86
2021/05/09 06:23:26;;;;;;;1.20;1.10;;;15.10;62.50;;;;;;5030305;28;20032;-81
2021/05/09 06:25:52;;;;;;;1.02;0.95;;;15.20;62.60;;;;;;5027565;28;20091;-83
2021/05/09 06:28:19;;;;;;;1.25;1.13;;;15.20;62.60;;;;;;5016685;28;20068;-82
2021/05/09 06:30:49;;;;;;;1.40;1.30;;;15.20;62.60;;;;;;5037687;28;20036;-81
2021/05/09 06:33:18;;;;;;;3.22;1.20;;;15.20;62.50;;;;;;5020445;28;20056;-82
2021/05/09 06:35:44;;;;;;;0.90;0.90;;;15.30;62.70;;;;;;5015524;28;20067;-81
2021/05/09 06:38:10;;;;;;;0.90;0.90;;;15.30;62.60;;;;;;5041190;28;20022;-82
2021/05/09 06:40:37;;;;;;;2.72;1.10;;;15.40;62.70;;;;;;5026586;28;20080;-80
2021/05/09 06:43:08;;;;;;;1.10;1.00;;;15.40;62.60;;;;;;5036874;28;20461;-83
2021/05/09 06:45:35;;;;;;;1.27;0.90;;;15.50;62.80;;;;;;5010603;28;20048;-81
2021/05/09 06:48:03;;;;;;;1.42;1.10;;;15.70;63.00;;;;;;5028293;28;20045;-81
2021/05/09 06:50:30;;;;;;;1.20;1.10;;;15.90;63.80;;;;;;5011271;28;20029;-81
2021/05/09 06:52:57;;;;;;;3.10;2.80;;;16.00;63.20;;;;;;5015473;28;20436;-82
2021/05/09 06:55:24;;;;;;;6.60;3.00;;;16.20;63.30;;;;;;5016977;28;20084;-80
2021/05/09 06:57:50;;;;;;;3.35;2.33;;;16.40;63.70;;;;;;5027156;28;20036;-82
2021/05/09 07:00:18;;;;;;;2.78;2.58;;;16.50;63.90;;;;;;5026494;28;20017;-83
2021/05/09 07:02:44;;;;;;;3.47;2.22;;;16.70;64.00;;;;;;5016035;28;20295;-84
2021/05/09 07:05:11;;;;;;;2.55;1.75;;;16.80;64.10;;;;;;5029623;28;20048;-88
2021/05/09 07:07:53;;;;;;;2.00;1.83;;;17.00;64.10;;;;;;5026949;28;20025;-84
2021/05/09 07:10:23;;;;;;;2.53;2.00;;;17.10;64.20;;;;;;5010603;28;20029;-85
2021/05/09 07:12:50;;;;;;;2.63;1.90;;;17.20;64.10;;;;;;4993401;28;20018;-83
2021/05/09 07:15:24;;;;;;;4.85;2.20;;;17.40;64.40;;;;;;5030003;28;20029;-85
2021/05/09 07:18:05;;;;;;;2.65;1.60;;;17.60;64.60;;;;;;5010190;28;20029;-81
2021/05/09 07:20:34;;;;;;;2.00;1.50;;;17.90;64.80;;;;;;5042603;28;20451;-82
2021/05/09 07:23:01;;;;;;;2.58;1.73;;;18.30;65.10;;;;;;5017663;28;20045;-85
2021/05/09 07:25:27;;;;;;;2.08;1.50;;;18.60;65.10;;;;;;5024142;28;20087;-83
2021/05/09 07:27:53;;;;;;;2.55;1.60;;;19.00;65.10;;;;;;5026759;28;20033;-83
2021/05/09 07:30:20;;;;;;;2.92;1.60;;;19.40;65.00;;;;;;5042941;28;20033;-84
2021/05/09 07:32:46;;;;;;;1.88;1.50;;;19.60;64.50;;;;;;5015721;28;20032;-85
2021/05/09 07:35:12;;;;;;;1.27;1.17;;;19.70;64.10;;;;;;5046272;28;20079;-84
2021/05/09 07:37:38;;;;;;;1.30;1.20;;;19.80;64.00;;;;;;5022123;28;20056;-82
2021/05/09 07:40:05;;;;;;;4.20;1.58;;;19.90;63.80;;;;;;5024081;28;20057;-82
2021/05/09 07:42:31;;;;;;;2.00;1.27;;;20.10;63.90;;;;;;5013270;28;20524;-84
2021/05/09 07:44:59;;;;;;;2.20;1.35;;;20.40;64.10;;;;;;5028068;28;20079;-85
2021/05/09 07:47:26;;;;;;;1.98;1.33;;;20.60;64.00;;;;;;5029780;28;20057;-84
2021/05/09 07:49:53;;;;;;;4.82;1.27;;;21.00;64.10;;;;;;5045690;28;20035;-85
2021/05/09 07:52:19;;;;;;;1.55;1.20;;;21.10;64.00;;;;;;5029394;28;20041;-82
2021/05/09 07:54:45;;;;;;;3.15;1.38;;;21.20;63.20;;;;;;5027096;28;20287;-82
2021/05/09 07:57:11;;;;;;;4.13;1.67;;;21.20;62.90;;;;;;5041710;28;20037;-82
2021/05/09 07:59:37;;;;;;;3.08;1.40;;;21.10;62.70;;;;;;5044023;28;20049;-82
2021/05/09 08:02:04;;;;;;;3.60;1.60;;;21.10;62.60;;;;;;5028122;28;20033;-83
2021/05/09 08:04:30;;;;;;;2.42;1.17;;;21.00;62.40;;;;;;5044931;28;20033;-82
2021/05/09 08:06:56;;;;;;;3.83;1.75;;;20.90;62.20;;;;;;5029004;28;20090;-82
2021/05/09 08:09:21;;;;;;;4.97;1.90;;;20.90;62.20;;;;;;5012662;28;20041;-83
2021/05/09 08:11:47;;;;;;;3.83;1.35;;;20.80;62.00;;;;;;5009231;28;20053;-83
2021/05/09 08:14:13;;;;;;;2.40;1.10;;;20.80;62.00;;;;;;5019037;28;20120;-82
2021/05/09 08:16:39;;;;;;;3.53;1.40;;;20.70;61.80;;;;;;5012427;28;20039;-80
2021/05/09 08:19:05;;;;;;;3.85;1.60;;;20.70;61.80;;;;;;5025312;28;20028;-81
2021/05/09 08:21:31;;;;;;;4.63;1.70;;;20.70;61.80;;;;;;5038928;28;20508;-81
2021/05/09 08:23:57;;;;;;;3.67;1.88;;;20.80;61.80;;;;;;5029633;28;20615;-81
2021/05/09 08:26:23;;;;;;;3.85;1.60;;;21.00;61.90;;;;;;5024789;28;20061;-81
2021/05/09 08:28:50;;;;;;;3.03;1.25;;;21.30;61.90;;;;;;5027628;28;20033;-81
2021/05/09 08:31:16;;;;;;;3.50;1.40;;;21.70;61.90;;;;;;5017203;28;20021;-82
2021/05/09 08:33:48;;;;;;;2.78;1.40;;;22.00;61.60;;;;;;5050578;28;20115;-79
2021/05/09 08:36:15;;;;;;;4.60;1.40;;;22.20;61.20;;;;;;5050086;28;20029;-81
2021/05/09 08:38:41;;;;;;;1.63;1.10;;;22.30;61.10;;;;;;5032141;28;20456;-81
2021/05/09 08:41:07;;;;;;;2.80;1.42;;;22.40;61.00;;;;;;5040926;28;20063;-82
2021/05/09 08:43:33;;;;;;;3.78;1.50;;;22.50;60.90;;;;;;5043558;28;20103;-82
2021/05/09 08:45:59;;;;;;;4.00;1.50;;;22.60;60.70;;;;;;5041581;28;20092;-85
2021/05/09 08:48:26;;;;;;;2.67;1.45;;;22.80;60.70;;;;;;5031695;28;20439;-83
2021/05/09 08:50:53;;;;;;;5.32;1.70;;;23.00;60.50;;;;;;5031934;28;20033;-83
2021/05/09 08:53:20;;;;;;;3.70;1.90;;;23.00;60.30;;;;;;5033375;28;20033;-85
2021/05/09 08:55:46;;;;;;;4.45;1.75;;;23.10;60.20;;;;;;5032468;28;20090;-85
2021/05/09 08:58:12;;;;;;;5.78;2.20;;;23.20;60.20;;;;;;5032386;28;20035;-86
2021/05/09 09:00:39;;;;;;;6.22;2.33;;;23.20;60.00;;;;;;5048381;28;20037;-82
2021/05/09 09:03:06;;;;;;;6.05;1.90;;;23.20;60.00;;;;;;5049954;28;20022;-85
2021/05/09 09:05:39;;;;;;;5.05;1.85;;;23.20;60.00;;;;;;5048383;28;20091;-82
2021/05/09 09:08:06;;;;;;;4.35;2.13;;;23.20;59.80;;;;;;5049271;28;20358;-81
2021/05/09 09:10:35;;;;;;;5.82;2.17;;;23.30;60.00;;;;;;5031974;28;20033;-81
2021/05/09 09:13:03;;;;;;;7.72;2.45;;;23.30;59.80;;;;;;5049221;28;20029;-84
2021/05/09 09:15:48;;;;;;;5.45;1.88;;;23.20;59.70;;;;;;5049905;28;20037;-82
2021/05/09 09:18:44;;;;;;;5.35;2.35;;;23.20;59.80;;;;;;5049400;28;20036;-82
2021/05/09 09:21:30;;;;;;;14.65;4.65;;;23.20;59.80;;;;;;5049046;28;20048;-83
2021/05/09 09:24:08;;;;;;;6.63;3.17;;;23.20;59.80;;;;;;5047885;28;20465;-85
2021/05/09 09:26:48;;;;;;;11.73;4.38;;;23.20;59.70;;;;;;5030916;28;20091;-82
2021/05/09 09:29:34;;;;;;;7.63;3.35;;;23.30;59.80;;;;;;5031261;28;20040;-82
2021/05/09 09:32:02;;;;;;;8.10;3.67;;;23.50;60.10;;;;;;5048833;28;20033;-84
2021/05/09 09:34:54;;;;;;;10.95;3.70;;;23.60;60.10;;;;;;5047916;28;20037;-83
2021/05/09 09:37:21;;;;;;;7.00;3.55;;;23.70;60.10;;;;;;5043022;28;20043;-82
2021/05/09 09:39:59;;;;;;;5.35;2.78;;;23.80;59.90;;;;;;5047821;28;20033;-82
2021/05/09 09:42:38;;;;;;;5.78;2.70;;;23.80;59.50;;;;;;5031206;28;20400;-83
2021/05/09 09:45:24;;;;;;;5.85;3.08;;;23.90;59.50;;;;;;5031436;28;20045;-83
2021/05/09 09:48:02;;;;;;;7.90;4.13;;;23.90;59.30;;;;;;5030688;28;20045;-83
2021/05/09 09:50:43;;;;;;;7.95;3.15;;;24.00;59.40;;;;;;5031098;28;20040;-83
2021/05/09 09:53:30;;;;;;;11.25;3.65;;;24.10;59.40;;;;;;5022491;28;20044;-83
2021/05/09 09:56:13;;;;;;;7.68;3.63;;;24.10;59.20;;;;;;5011362;28;20033;-83
2021/05/09 09:59:02;;;;;;;10.23;2.63;;;24.20;59.10;;;;;;5027224;28;20030;-83
2021/05/09 10:01:37;;;;;;;6.68;3.13;;;24.30;59.10;;;;;;5022919;28;20035;-82
2021/05/09 10:04:08;;;;;;;8.95;3.40;;;24.40;59.10;;;;;;5044286;28;20029;-82
2021/05/09 10:06:39;;;;;;;7.75;3.38;;;24.40;58.90;;;;;;5031117;28;20047;-82
2021/05/09 10:09:06;;;;;;;8.75;2.65;;;24.50;59.00;;;;;;5048217;28;20063;-83
2021/05/09 10:11:33;;;;;;;8.63;3.08;;;24.50;58.90;;;;;;5049896;28;20366;-83
2021/05/09 10:13:59;;;;;;;7.55;2.72;;;24.50;58.70;;;;;;5035862;28;20354;-84
2021/05/09 10:16:29;;;;;;;7.88;2.85;;;24.60;57.90;;;;;;5029227;28;20389;-85
2021/05/09 10:19:00;;;;;;;8.35;2.45;;;24.50;56.70;;;;;;5022459;28;20528;-85
2021/05/09 10:21:35;;;;;;;7.15;2.40;;;24.30;55.80;;;;;;5047328;28;20025;-85
2021/05/09 10:24:08;;;;;;;9.52;3.28;;;24.10;55.20;;;;;;5033052;28;20396;-85
2021/05/09 10:26:54;;;;;;;7.18;2.60;;;23.90;54.60;;;;;;5027531;28;20572;-87
2021/05/09 10:29:32;;;;;;;6.93;2.13;;;23.80;54.60;;;;;;5028879;28;20052;-85
2021/05/09 10:32:06;;;;;;;8.15;2.67;;;23.60;54.30;;;;;;5010498;28;20579;-86
2021/05/09 10:37:38;;;;;;;6.57;2.58;;;23.40;53.80;;;;;;5027118;28;20279;-83
2021/05/09 10:40:37;;;;;;;9.68;3.05;;;23.30;53.70;;;;;;5026943;28;20030;-85
2021/05/09 10:43:07;;;;;;;11.45;3.15;;;23.30;53.50;;;;;;5033378;28;20119;-81
2021/05/09 10:45:34;;;;;;;10.23;3.17;;;23.20;53.40;;;;;;5046133;28;20025;-82
2021/05/09 10:48:15;;;;;;;9.43;3.10;;;23.20;53.40;;;;;;5047534;28;20053;-84
2021/05/09 10:51:03;;;;;;;11.45;2.90;;;23.20;53.40;;;;;;5029149;28;20055;-84
2021/05/09 10:56:19;;;;;;;12.13;3.53;;;23.20;53.40;;;;;;5048283;28;20051;-86
2021/05/09 10:58:51;;;;;;;8.25;3.30;;;23.20;53.30;;;;;;5048741;28;20127;-92
2021/05/09 11:01:27;;;;;;;10.88;3.22;;;23.10;53.00;;;;;;5051257;28;20607;-93
2021/05/09 11:04:10;;;;;;;11.20;3.50;;;23.20;53.30;;;;;;5030778;28;20032;-93
2021/05/09 11:06:47;;;;;;;10.90;3.50;;;23.20;53.30;;;;;;5033231;28;20063;-94
2021/05/09 11:09:29;;;;;;;13.43;4.10;;;23.20;53.30;;;;;;5065010;28;20036;-91
2021/05/09 11:11:57;;;;;;;12.82;3.70;;;23.20;53.10;;;;;;5047486;28;20037;-90
2021/05/09 11:14:23;;;;;;;11.68;3.42;;;23.20;53.20;;;;;;5047675;28;20029;-85
2021/05/09 11:17:04;;;;;;;10.23;3.05;;;23.20;53.20;;;;;;5029924;28;20037;-84
2021/05/09 11:19:36;;;;;;;11.13;3.33;;;23.20;53.00;;;;;;5047379;28;20021;-86
2021/05/09 11:22:03;;;;;;;11.95;3.00;;;23.30;53.20;;;;;;5046133;28;20037;-84
2021/05/09 11:24:31;;;;;;;14.90;5.25;;;23.20;52.90;;;;;;5045666;28;20635;-86
2021/05/09 11:26:59;;;;;;;20.90;14.15;;;23.30;53.40;;;;;;5045932;28;20025;-84
2021/05/09 11:29:28;;;;;;;11.73;9.32;;;23.40;54.60;;;;;;5029449;28;20040;-85
2021/05/09 11:32:05;;;;;;;14.38;9.52;;;23.60;55.20;;;;;;5025715;28;20433;-85
2021/05/09 11:34:32;;;;;;;14.05;9.85;;;23.80;55.70;;;;;;5046425;28;20037;-85
2021/05/09 11:36:58;;;;;;;13.98;8.77;;;24.00;55.80;;;;;;5045744;28;20024;-83
2021/05/09 11:39:30;;;;;;;16.10;9.13;;;24.20;56.10;;;;;;5030426;28;20037;-83
2021/05/09 11:42:12;;;;;;;17.42;8.43;;;24.50;56.50;;;;;;5025902;28;20029;-83
2021/05/09 11:44:43;;;;;;;13.98;7.43;;;24.60;56.40;;;;;;5026022;28;20583;-81
2021/05/09 11:47:13;;;;;;;10.93;7.63;;;24.80;56.60;;;;;;5009893;28;20058;-85
2021/05/09 11:49:41;;;;;;;13.73;7.25;;;25.00;56.70;;;;;;5027328;28;20039;-82
2021/05/09 11:52:09;;;;;;;12.45;7.43;;;25.30;56.70;;;;;;5028850;28;20124;-82
2021/05/09 11:54:53;;;;;;;9.52;6.68;;;25.50;56.60;;;;;;5046566;28;20036;-83
2021/05/09 11:57:22;;;;;;;11.30;6.47;;;25.70;56.40;;;;;;5047042;28;20033;-83
2021/05/09 11:59:52;;;;;;;12.90;6.85;;;25.90;56.40;;;;;;5028688;28;20099;-82
2021/05/09 12:02:27;;;;;;;8.07;5.22;;;26.00;56.20;;;;;;5047321;28;20131;-83
2021/05/09 12:04:55;;;;;;;9.18;5.82;;;26.20;56.20;;;;;;5031258;28;20495;-83
2021/05/09 12:07:23;;;;;;;7.70;4.78;;;26.30;56.10;;;;;;5030194;28;20120;-82
2021/05/09 12:09:54;;;;;;;8.43;5.22;;;26.40;56.00;;;;;;5029494;28;20479;-82
2021/05/09 12:12:22;;;;;;;7.50;4.90;;;26.50;55.80;;;;;;5013165;28;20045;-83
2021/05/09 12:14:52;;;;;;;9.25;4.85;;;26.70;55.90;;;;;;5013169;28;20044;-82
2021/05/09 12:17:27;;;;;;;5.88;4.40;;;26.70;55.70;;;;;;5013127;28;20521;-81
2021/05/09 12:19:55;;;;;;;7.20;4.45;;;26.90;55.60;;;;;;5031745;28;20029;-81
2021/05/09 12:22:22;;;;;;;11.88;5.03;;;27.00;55.60;;;;;;5026051;28;20040;-82
2021/05/09 12:24:58;;;;;;;10.23;4.55;;;27.00;55.50;;;;;;5018412;28;20380;-83
2021/05/09 12:27:25;;;;;;;8.00;4.30;;;27.10;55.30;;;;;;5035655;28;20068;-84
2021/05/09 12:29:55;;;;;;;7.63;4.00;;;27.30;55.40;;;;;;5033213;28;20045;-84
2021/05/09 12:32:25;;;;;;;5.63;3.50;;;27.40;55.40;;;;;;5032117;28;20033;-84
2021/05/09 12:35:15;;;;;;;8.05;3.80;;;27.50;55.30;;;;;;5049558;28;20135;-83
2021/05/09 12:37:46;;;;;;;9.35;3.72;;;27.70;55.20;;;;;;5049808;28;20193;-82
2021/05/09 12:40:14;;;;;;;6.43;3.08;;;27.80;55.00;;;;;;5032880;28;20516;-82
2021/05/09 12:42:55;;;;;;;8.23;3.22;;;27.90;54.80;;;;;;5028412;28;20033;-81
2021/05/09 12:45:41;;;;;;;5.70;2.90;;;28.10;54.80;;;;;;5041551;28;20546;-87
2021/05/09 12:48:09;;;;;;;4.55;2.83;;;28.30;54.80;;;;;;5030068;28;20041;-86
2021/05/09 12:50:48;;;;;;;7.80;3.13;;;28.50;54.60;;;;;;5033428;28;20047;-83
2021/05/09 12:53:15;;;;;;;6.55;3.08;;;28.90;54.40;;;;;;5041706;28;20041;-84
2021/05/09 12:55:42;;;;;;;5.28;2.95;;;29.10;54.20;;;;;;5029745;28;20056;-82
2021/05/09 12:58:11;;;;;;;4.80;2.78;;;29.30;53.80;;;;;;5028516;28;20059;-84
2021/05/09 13:00:38;;;;;;;4.03;2.58;;;29.60;53.60;;;;;;5030060;28;20029;-82